createdAt,value
2018-12-22T00:01:22.664Z,91.60
2018-12-22T00:03:50.947Z,91.60
2018-12-22T00:06:19.215Z,91.50
2018-12-22T00:08:47.510Z,91.40
2018-12-22T00:11:15.843Z,91.50
2018-12-22T00:13:44.134Z,91.60
2018-12-22T00:16:12.412Z,91.50
2018-12-22T00:18:40.688Z,91.60
2018-12-22T00:21:08.987Z,91.70
2018-12-22T00:23:37.431Z,91.80
2018-12-22T00:26:05.694Z,91.80
2018-12-22T00:28:33.958Z,91.80
2018-12-22T00:31:02.264Z,91.90
2018-12-22T00:33:30.555Z,92.00
2018-12-22T00:35:58.822Z,92.20
2018-12-22T00:38:27.110Z,92.80
2018-12-22T00:40:55.576Z,92.50
2018-12-22T00:43:23.827Z,92.40
2018-12-22T00:45:52.569Z,92.40
2018-12-22T00:48:20.830Z,92.30
2018-12-22T00:50:49.112Z,92.50
2018-12-22T00:53:17.402Z,92.80
2018-12-22T00:55:45.832Z,93.00
2018-12-22T00:58:14.084Z,93.20
2018-12-22T01:00:42.504Z,93.30
2018-12-22T01:03:10.751Z,93.90
2018-12-22T01:05:39.011Z,94.00
2018-12-22T01:08:07.675Z,93.50
2018-12-22T01:10:35.934Z,93.60
2018-12-22T01:13:04.667Z,93.40
2018-12-22T01:15:32.954Z,93.60
2018-12-22T01:18:01.215Z,93.80
2018-12-22T01:20:29.494Z,93.10
2018-12-22T01:22:57.894Z,93.60
2018-12-22T01:25:26.180Z,93.70
2018-12-22T01:27:54.450Z,93.40
2018-12-22T01:30:23.393Z,93.50
2018-12-22T01:32:51.651Z,93.60
2018-12-22T01:35:19.930Z,93.60
2018-12-22T01:37:48.219Z,94.40
2018-12-22T01:40:16.482Z,94.10
2018-12-22T01:42:44.762Z,94.40
2018-12-22T01:45:13.047Z,94.20
2018-12-22T01:47:41.315Z,94.20
2018-12-22T01:50:09.667Z,94.10
2018-12-22T01:52:38.373Z,94.00
2018-12-22T01:55:07.214Z,93.90
2018-12-22T01:57:35.479Z,93.80
2018-12-22T02:00:05.900Z,93.90
2018-12-22T02:02:34.168Z,93.80
2018-12-22T02:05:02.522Z,93.90
2018-12-22T02:07:30.840Z,93.20
2018-12-22T02:09:59.104Z,93.10
2018-12-22T02:12:27.377Z,92.60
2018-12-22T02:14:56.427Z,92.60
2018-12-22T02:17:24.710Z,92.40
2018-12-22T02:19:52.991Z,92.40
2018-12-22T02:22:21.281Z,92.20
2018-12-22T02:24:49.659Z,91.80
2018-12-22T02:27:17.933Z,91.40
2018-12-22T02:29:46.216Z,90.90
2018-12-22T02:32:14.472Z,90.40
2018-12-22T02:34:42.738Z,90.50
2018-12-22T02:37:11.459Z,90.10
2018-12-22T02:39:39.734Z,90.30
2018-12-22T02:42:07.987Z,90.20
2018-12-22T02:44:36.294Z,89.70
2018-12-22T02:47:04.572Z,89.30
2018-12-22T02:49:32.842Z,88.70
2018-12-22T02:52:01.131Z,88.60
2018-12-22T02:54:29.400Z,89.30
2018-12-22T02:56:57.670Z,88.90
2018-12-22T02:59:26.335Z,89.10
2018-12-22T03:01:54.594Z,88.10
2018-12-22T03:04:22.877Z,89.00
2018-12-22T03:06:51.158Z,89.10
2018-12-22T03:09:19.428Z,88.90
2018-12-22T03:11:47.690Z,89.00
2018-12-22T03:14:16.027Z,89.30
2018-12-22T03:16:44.555Z,89.80
2018-12-22T03:19:13.215Z,90.00
2018-12-22T03:21:41.668Z,90.20
2018-12-22T03:24:09.978Z,90.30
2018-12-22T03:26:38.239Z,90.20
2018-12-22T03:29:15.213Z,90.60
2018-12-22T03:31:36.812Z,90.60
2018-12-22T03:34:05.077Z,90.50
2018-12-22T03:36:33.364Z,90.60
2018-12-22T03:39:01.636Z,90.40
2018-12-22T03:41:29.906Z,90.40
2018-12-22T03:43:58.579Z,90.50
2018-12-22T03:46:26.846Z,90.70
2018-12-22T03:48:55.119Z,90.70
2018-12-22T03:51:23.552Z,90.70
2018-12-22T03:53:51.799Z,90.60
2018-12-22T03:56:20.058Z,91.10
2018-12-22T03:58:48.356Z,90.70
2018-12-22T04:01:16.618Z,89.80
2018-12-22T04:03:44.898Z,89.20
2018-12-22T04:06:13.528Z,87.40
2018-12-22T04:08:41.820Z,84.80
2018-12-22T04:11:10.089Z,85.30
2018-12-22T04:13:38.378Z,86.10
2018-12-22T04:16:06.638Z,86.40
2018-12-22T04:18:35.264Z,88.20
2018-12-22T04:21:03.575Z,89.30
2018-12-22T04:23:31.846Z,90.30
2018-12-22T04:26:00.123Z,90.70
2018-12-22T04:28:28.836Z,90.70
2018-12-22T04:30:57.178Z,91.00
2018-12-22T04:33:25.450Z,91.80
2018-12-22T04:35:53.735Z,92.70
2018-12-22T04:38:21.999Z,92.10
2018-12-22T04:40:50.268Z,93.00
2018-12-22T04:43:18.550Z,93.40
2018-12-22T04:45:46.823Z,93.30
2018-12-22T04:48:15.083Z,93.50
2018-12-22T04:50:43.818Z,93.10
2018-12-22T04:53:12.079Z,92.80
2018-12-22T04:55:40.344Z,93.40
2018-12-22T04:58:08.626Z,93.50
2018-12-22T05:00:37.251Z,93.10
2018-12-22T05:03:05.482Z,93.80
2018-12-22T05:05:33.774Z,94.30
2018-12-22T05:08:02.039Z,94.70
2018-12-22T05:10:30.312Z,95.20
2018-12-22T05:12:59.051Z,94.80
2018-12-22T05:15:27.322Z,95.70
2018-12-22T05:17:55.583Z,96.90
2018-12-22T05:20:24.161Z,96.90
2018-12-22T05:22:52.431Z,97.40
2018-12-22T05:25:20.698Z,98.00
2018-12-22T05:27:49.034Z,98.10
2018-12-22T05:30:17.294Z,99.00
2018-12-22T05:32:45.566Z,99.90
2018-12-22T05:35:14.154Z,99.90
2018-12-22T05:37:42.412Z,99.90
2018-12-22T05:40:10.675Z,99.90
2018-12-22T05:42:38.958Z,99.90
2018-12-22T05:45:07.227Z,99.90
2018-12-22T05:47:35.486Z,99.90
2018-12-22T05:50:05.746Z,99.90
2018-12-22T05:52:34.011Z,99.90
2018-12-22T05:55:02.275Z,99.90
2018-12-22T05:57:31.025Z,99.90
2018-12-22T06:00:00.723Z,99.90
2018-12-22T06:02:29.338Z,99.90
2018-12-22T06:04:57.631Z,99.90
2018-12-22T06:07:25.895Z,99.90
2018-12-22T06:09:54.162Z,99.70
2018-12-22T06:12:22.460Z,99.20
2018-12-22T06:14:50.746Z,98.50
2018-12-22T06:17:19.159Z,97.80
2018-12-22T06:19:47.742Z,96.90
2018-12-22T06:22:16.170Z,96.50
2018-12-22T06:24:44.447Z,95.90
2018-12-22T06:27:12.730Z,95.30
2018-12-22T06:29:41.002Z,95.00
2018-12-22T06:32:09.271Z,94.60
2018-12-22T06:34:37.586Z,94.50
2018-12-22T06:37:05.856Z,94.60
2018-12-22T06:39:34.118Z,94.30
2018-12-22T06:42:02.773Z,93.90
2018-12-22T06:44:31.111Z,93.30
2018-12-22T06:46:59.405Z,93.30
2018-12-22T06:49:27.757Z,93.40
2018-12-22T06:51:56.218Z,93.80
2018-12-22T06:54:24.543Z,94.10
2018-12-22T06:56:52.806Z,94.40
2018-12-22T06:59:21.074Z,94.00
2018-12-22T07:01:49.334Z,93.90
2018-12-22T07:04:17.969Z,93.80
2018-12-22T07:06:46.239Z,93.80
2018-12-22T07:09:14.499Z,93.40
2018-12-22T07:11:42.791Z,93.40
2018-12-22T07:14:11.047Z,93.50
2018-12-22T07:16:39.319Z,93.80
2018-12-22T07:19:07.598Z,93.80
2018-12-22T07:21:35.873Z,93.70
2018-12-22T07:24:04.583Z,93.60
2018-12-22T07:26:32.942Z,93.50
2018-12-22T07:29:01.367Z,93.00
2018-12-22T07:31:29.626Z,92.40
2018-12-22T07:33:57.910Z,92.30
2018-12-22T07:36:26.187Z,92.20
2018-12-22T07:38:54.470Z,91.00
2018-12-22T07:41:22.739Z,91.00
2018-12-22T07:43:51.003Z,89.50
2018-12-22T07:46:19.263Z,88.20
2018-12-22T07:48:47.786Z,87.90
2018-12-22T07:51:16.226Z,87.50
2018-12-22T07:53:44.494Z,86.10
2018-12-22T07:56:12.864Z,85.40
2018-12-22T07:58:41.298Z,85.90
2018-12-22T08:01:09.638Z,88.10
2018-12-22T08:03:37.947Z,92.00
2018-12-22T08:06:06.237Z,93.20
2018-12-22T08:08:34.502Z,94.00
2018-12-22T08:11:03.379Z,94.30
2018-12-22T08:13:31.635Z,94.10
2018-12-22T08:15:59.902Z,93.70
2018-12-22T08:18:28.178Z,91.40
2018-12-22T08:20:56.462Z,90.00
2018-12-22T08:23:24.779Z,89.60
2018-12-22T08:25:53.348Z,87.70
2018-12-22T08:28:21.610Z,85.60
2018-12-22T08:30:49.880Z,84.70
2018-12-22T08:33:18.331Z,84.30
2018-12-22T08:35:46.600Z,80.60
2018-12-22T08:38:14.967Z,79.80
2018-12-22T08:40:43.255Z,79.60
2018-12-22T08:43:11.517Z,77.60
2018-12-22T08:45:39.774Z,77.30
2018-12-22T08:48:08.070Z,77.50
2018-12-22T08:50:37.263Z,77.70
2018-12-22T08:53:05.526Z,77.90
2018-12-22T08:55:34.123Z,77.80
2018-12-22T08:58:02.387Z,77.60
2018-12-22T09:00:30.726Z,77.20
2018-12-22T09:02:59.037Z,77.30
2018-12-22T09:05:27.303Z,77.30
2018-12-22T09:07:55.567Z,77.20
2018-12-22T09:10:24.057Z,77.30
2018-12-22T09:12:52.324Z,76.30
2018-12-22T09:15:20.583Z,76.50
2018-12-22T09:17:49.143Z,75.60
2018-12-22T09:20:17.430Z,75.80
2018-12-22T09:22:45.702Z,75.40
2018-12-22T09:25:13.991Z,75.60
2018-12-22T09:27:42.679Z,74.90
2018-12-22T09:30:11.159Z,76.10
2018-12-22T09:32:39.450Z,78.00
2018-12-22T09:35:07.811Z,79.50
2018-12-22T09:37:36.076Z,82.00
2018-12-22T09:40:05.806Z,83.70
2018-12-22T09:42:34.071Z,86.70
2018-12-22T09:45:02.355Z,87.50
2018-12-22T09:47:30.670Z,91.00
2018-12-22T09:49:58.934Z,91.20
2018-12-22T09:52:27.197Z,91.60
2018-12-22T09:54:55.623Z,91.70
2018-12-22T09:57:23.871Z,90.90
2018-12-22T09:59:52.137Z,90.50
2018-12-22T10:02:20.658Z,88.50
2018-12-22T10:04:48.932Z,85.20
2018-12-22T10:07:17.207Z,84.20
2018-12-22T10:09:45.735Z,83.50
2018-12-22T10:12:14.003Z,83.60
2018-12-22T10:14:42.259Z,82.00
2018-12-22T10:17:10.551Z,80.00
2018-12-22T10:19:38.811Z,80.10
2018-12-22T10:22:07.074Z,82.50
2018-12-22T10:24:35.476Z,88.40
2018-12-22T10:27:03.731Z,93.50
2018-12-22T10:29:32.633Z,94.50
2018-12-22T10:32:00.911Z,95.80
2018-12-22T10:34:29.961Z,95.70
2018-12-22T10:36:58.223Z,95.50
2018-12-22T10:39:26.519Z,95.20
2018-12-22T10:41:55.654Z,94.20
2018-12-22T10:44:24.051Z,93.70
2018-12-22T10:46:52.387Z,92.50
2018-12-22T10:49:20.698Z,91.00
2018-12-22T10:51:48.981Z,90.00
2018-12-22T10:54:17.279Z,88.40
2018-12-22T10:56:45.717Z,87.60
2018-12-22T10:59:13.966Z,85.70
2018-12-22T11:01:42.323Z,94.40
2018-12-22T11:04:10.672Z,89.00
2018-12-22T11:06:38.939Z,86.20
2018-12-22T11:09:09.675Z,85.00
2018-12-22T11:11:37.932Z,84.70
2018-12-22T11:14:06.339Z,84.00
2018-12-22T11:16:34.630Z,85.40
2018-12-22T11:19:02.899Z,89.60
2018-12-22T11:21:31.481Z,91.90
2018-12-22T11:23:59.814Z,93.60
2018-12-22T11:26:28.082Z,97.80
2018-12-22T11:28:56.576Z,97.40
2018-12-22T11:31:24.915Z,99.90
2018-12-22T11:33:53.375Z,99.90
2018-12-22T11:36:21.747Z,99.90
2018-12-22T11:38:50.037Z,99.90
2018-12-22T11:41:18.299Z,99.90
2018-12-22T11:43:46.563Z,99.90
2018-12-22T11:46:14.922Z,99.90
2018-12-22T11:48:44.450Z,99.90
2018-12-22T11:51:12.770Z,99.90
2018-12-22T11:53:41.413Z,99.90
2018-12-22T11:56:09.682Z,99.90
2018-12-22T11:58:38.373Z,99.90
2018-12-22T12:01:06.726Z,99.90
2018-12-22T12:03:35.166Z,99.90
2018-12-22T12:06:03.496Z,99.90
2018-12-22T12:08:31.942Z,99.90
2018-12-22T12:11:00.571Z,98.60
2018-12-22T12:13:29.291Z,97.40
2018-12-22T12:16:00.314Z,95.80
2018-12-22T12:18:52.867Z,92.40
2018-12-22T12:21:21.154Z,93.00
2018-12-22T12:23:49.418Z,96.20
2018-12-22T12:26:17.898Z,97.70
2018-12-22T12:28:46.187Z,94.30
2018-12-22T12:31:14.447Z,93.40
2018-12-22T12:33:43.667Z,92.30
2018-12-22T12:36:12.445Z,92.80
2018-12-22T12:38:41.777Z,94.10
2018-12-22T12:41:12.497Z,94.90
2018-12-22T12:43:41.014Z,95.60
2018-12-22T12:46:10.723Z,96.10
2018-12-22T12:48:39.154Z,97.90
2018-12-22T12:51:07.838Z,98.80
2018-12-22T12:53:36.087Z,98.20
2018-12-22T12:56:04.354Z,93.00
2018-12-22T12:58:32.763Z,91.20
2018-12-22T13:01:01.985Z,93.00
2018-12-22T13:03:30.360Z,91.70
2018-12-22T13:05:58.759Z,88.90
2018-12-22T13:08:27.019Z,90.30
2018-12-22T13:10:55.493Z,79.90
2018-12-22T13:13:28.563Z,75.30
2018-12-22T13:15:56.854Z,75.40
2018-12-22T13:18:25.244Z,72.00
2018-12-22T13:20:53.702Z,71.40
2018-12-22T13:23:22.023Z,70.20
2018-12-22T13:25:51.614Z,70.50
2018-12-22T13:28:20.943Z,72.10
2018-12-22T13:30:49.211Z,73.20
2018-12-22T13:33:18.172Z,72.60
2018-12-22T13:35:46.709Z,69.90
2018-12-22T13:38:15.982Z,68.40
2018-12-22T13:40:44.663Z,66.40
2018-12-22T13:43:13.419Z,67.60
2018-12-22T13:45:54.611Z,67.60
2018-12-22T13:48:23.406Z,68.00
2018-12-22T13:50:52.594Z,66.90
2018-12-22T13:53:20.984Z,67.10
2018-12-22T13:55:49.400Z,66.90
2018-12-22T13:58:17.751Z,67.30
2018-12-22T14:00:46.625Z,68.60
2018-12-22T14:03:15.681Z,69.50
2018-12-22T14:05:45.522Z,69.90
2018-12-22T14:08:14.946Z,70.30
2018-12-22T14:10:43.359Z,69.90
2018-12-22T14:13:11.738Z,71.00
2018-12-22T14:15:44.220Z,70.50
2018-12-22T14:18:22.283Z,70.50
2018-12-22T14:20:50.954Z,70.60
2018-12-22T14:23:21.607Z,71.30
2018-12-22T14:25:50.903Z,71.10
2018-12-22T14:28:19.415Z,72.10
2018-12-22T14:30:48.802Z,72.40
2018-12-22T14:33:17.190Z,71.70
2018-12-22T14:35:45.582Z,72.60
2018-12-22T14:38:14.846Z,72.60
2018-12-22T14:40:43.443Z,72.10
2018-12-22T14:43:12.527Z,71.70
2018-12-22T14:45:40.906Z,71.50
2018-12-22T14:48:09.476Z,71.90
2018-12-22T14:50:37.970Z,71.70
2018-12-22T14:53:06.362Z,71.20
2018-12-22T14:55:35.703Z,70.90
2018-12-22T14:58:06.755Z,71.00
2018-12-22T15:00:35.243Z,71.00
2018-12-22T15:03:03.753Z,71.20
2018-12-22T15:05:32.239Z,71.20
2018-12-22T15:08:00.653Z,71.50
2018-12-22T15:10:33.022Z,71.40
2018-12-22T15:13:01.401Z,71.60
2018-12-22T15:15:31.783Z,71.20
2018-12-22T15:18:02.110Z,71.40
2018-12-22T15:20:33.123Z,71.10
2018-12-22T15:23:04.707Z,71.30
2018-12-22T15:25:34.073Z,71.20
2018-12-22T15:28:02.832Z,71.40
2018-12-22T15:33:06.235Z,71.60
2018-12-22T15:35:34.638Z,71.60
2018-12-22T15:38:03.007Z,71.90
2018-12-22T15:40:31.683Z,72.00
2018-12-22T15:43:05.148Z,72.10
2018-12-22T15:45:33.512Z,72.00
2018-12-22T15:48:01.787Z,72.50
2018-12-22T15:50:35.233Z,72.20
2018-12-22T15:53:04.206Z,72.30
2018-12-22T15:55:32.491Z,72.50
2018-12-22T15:58:00.825Z,72.70
2018-12-22T16:00:30.321Z,72.90
2018-12-22T16:02:58.763Z,72.50
2018-12-22T16:05:28.175Z,72.80
2018-12-22T16:07:57.370Z,73.00
2018-12-22T16:10:25.750Z,72.70
2018-12-22T16:12:55.994Z,72.90
2018-12-22T16:15:26.120Z,73.20
2018-12-22T16:17:54.878Z,72.20
2018-12-22T16:20:23.402Z,73.90
2018-12-22T16:22:57.348Z,74.30
2018-12-22T16:25:27.743Z,74.90
2018-12-22T16:27:59.854Z,74.30
2018-12-22T16:30:37.103Z,74.50
2018-12-22T16:33:05.611Z,75.50
2018-12-22T16:35:34.296Z,74.90
2018-12-22T16:38:02.827Z,75.00
2018-12-22T16:40:32.627Z,75.00
2018-12-22T16:43:06.523Z,76.00
2018-12-22T16:45:38.327Z,75.00
2018-12-22T16:48:07.209Z,76.10
2018-12-22T16:50:37.501Z,76.20
2018-12-22T16:53:10.013Z,76.60
2018-12-22T16:55:40.600Z,76.60
2018-12-22T16:58:17.351Z,76.90
2018-12-22T17:01:02.087Z,76.70
2018-12-22T17:03:31.882Z,76.40
2018-12-22T17:06:02.693Z,76.50
2018-12-22T17:08:30.995Z,76.90
2018-12-22T17:11:00.351Z,76.60
2018-12-22T17:13:29.558Z,76.80
2018-12-22T17:15:58.263Z,76.50
2018-12-22T17:18:26.798Z,77.50
2018-12-22T17:21:00.396Z,77.30
2018-12-22T17:23:37.274Z,76.70
2018-12-22T17:26:06.003Z,76.90
2018-12-22T17:28:34.274Z,76.90
2018-12-22T17:31:02.675Z,77.70
2018-12-22T17:33:31.275Z,76.80
2018-12-22T17:35:59.718Z,78.10
2018-12-22T17:38:28.180Z,77.90
2018-12-22T17:40:56.738Z,77.70
2018-12-22T17:43:26.178Z,78.50
2018-12-22T17:45:55.412Z,78.50
2018-12-22T17:48:23.949Z,79.20
2018-12-22T17:50:57.065Z,79.50
2018-12-22T17:53:26.383Z,79.40
2018-12-22T17:55:54.757Z,78.50
2018-12-22T17:58:24.042Z,80.20
2018-12-22T18:00:54.660Z,80.10
2018-12-22T18:03:27.412Z,80.30
2018-12-22T18:05:54.516Z,79.60
2018-12-22T18:08:22.877Z,80.10
2018-12-22T18:10:53.461Z,79.90
2018-12-22T18:13:21.867Z,81.00
2018-12-22T18:15:55.065Z,80.20
2018-12-22T18:18:23.363Z,81.80
2018-12-22T18:20:51.747Z,80.70
2018-12-22T18:23:21.075Z,81.30
2018-12-22T18:25:50.237Z,81.10
2018-12-22T18:28:18.491Z,80.40
2018-12-22T18:30:46.840Z,80.30
2018-12-22T18:33:16.495Z,82.00
2018-12-22T18:35:44.913Z,81.60
2018-12-22T18:38:13.586Z,82.00
2018-12-22T18:40:44.041Z,81.60
2018-12-22T18:43:12.403Z,82.40
2018-12-22T18:45:40.791Z,83.00
2018-12-22T18:48:11.975Z,82.90
2018-12-22T18:50:40.409Z,83.10
2018-12-22T18:53:09.007Z,82.20
2018-12-22T18:55:45.747Z,82.70
2018-12-22T18:58:14.432Z,82.00
2018-12-22T19:00:43.014Z,82.10
2018-12-22T19:03:14.357Z,82.40
2018-12-22T19:05:42.626Z,83.00
2018-12-22T19:08:10.920Z,82.10
2018-12-22T19:10:39.480Z,82.00
2018-12-22T19:13:09.851Z,82.00
2018-12-22T19:15:38.215Z,82.30
2018-12-22T19:18:06.615Z,82.60
2018-12-22T19:20:38.735Z,82.50
2018-12-22T19:23:07.891Z,82.30
2018-12-22T19:25:36.559Z,82.80
2018-12-22T19:28:05.123Z,82.50
2018-12-22T19:30:33.726Z,81.80
2018-12-22T19:33:02.138Z,82.80
2018-12-22T19:35:32.972Z,82.90
2018-12-22T19:38:01.296Z,83.20
2018-12-22T19:40:32.296Z,82.70
2018-12-22T19:43:01.110Z,83.50
2018-12-22T19:45:30.490Z,82.50
2018-12-22T19:47:58.802Z,82.50
2018-12-22T19:50:29.063Z,82.90
2018-12-22T19:52:57.330Z,82.40
2018-12-22T19:55:26.107Z,82.80
2018-12-22T19:57:58.511Z,83.20
2018-12-22T20:00:26.847Z,83.10
2018-12-22T20:02:57.085Z,83.20
2018-12-22T20:05:26.607Z,83.90
2018-12-22T20:07:55.997Z,83.70
2018-12-22T20:10:24.733Z,83.80
2018-12-22T20:12:53.174Z,83.80
2018-12-22T20:15:21.565Z,83.70
2018-12-22T20:17:52.142Z,83.60
2018-12-22T20:20:20.423Z,84.60
2018-12-22T20:22:48.685Z,84.60
2018-12-22T20:25:17.280Z,84.50
2018-12-22T20:27:45.603Z,84.60
2018-12-22T20:30:13.908Z,84.50
2018-12-22T20:32:44.382Z,84.10
2018-12-22T20:35:12.671Z,83.90
2018-12-22T20:37:41.142Z,83.70
2018-12-22T20:40:09.600Z,83.50
2018-12-22T20:42:38.226Z,83.60
2018-12-22T20:45:06.575Z,83.40
2018-12-22T20:47:35.118Z,83.20
2018-12-22T20:50:04.758Z,83.30
2018-12-22T20:52:34.180Z,83.70
2018-12-22T20:55:02.594Z,83.30
2018-12-22T20:57:31.132Z,83.10
2018-12-22T21:00:00.268Z,82.90
2018-12-22T21:02:28.619Z,82.60
2018-12-22T21:04:57.495Z,83.50
2018-12-22T21:07:29.883Z,83.10
2018-12-22T21:09:58.207Z,82.90
2018-12-22T21:12:27.662Z,83.00
2018-12-22T21:14:56.351Z,83.20
2018-12-22T21:17:24.851Z,83.10
2018-12-22T21:19:53.168Z,83.40
2018-12-22T21:22:24.059Z,83.10
2018-12-22T21:24:52.703Z,82.80
2018-12-22T21:27:21.241Z,82.80
2018-12-22T21:29:50.052Z,83.10
2018-12-22T21:32:19.581Z,82.70
2018-12-22T21:34:48.354Z,82.60
2018-12-22T21:37:17.254Z,82.80
2018-12-22T21:39:45.993Z,82.50
2018-12-22T21:42:14.931Z,82.40
2018-12-22T21:44:43.497Z,82.10
2018-12-22T21:47:13.478Z,82.20
2018-12-22T21:49:44.100Z,82.50
2018-12-22T21:52:12.826Z,82.80
2018-12-22T21:54:47.208Z,83.00
2018-12-22T21:57:15.921Z,83.40
2018-12-22T21:59:45.704Z,83.50
2018-12-22T22:02:16.325Z,83.90
2018-12-22T22:04:48.714Z,84.00
2018-12-22T22:07:18.717Z,84.10
2018-12-22T22:09:48.137Z,84.20
2018-12-22T22:12:17.259Z,84.10
2018-12-22T22:14:47.481Z,84.10
2018-12-22T22:17:16.125Z,84.20
2018-12-22T22:19:44.800Z,84.20
2018-12-22T22:22:13.517Z,84.50
2018-12-22T22:24:42.155Z,84.30
2018-12-22T22:27:10.893Z,84.40
2018-12-22T22:29:42.225Z,84.40
2018-12-22T22:32:13.443Z,84.80
2018-12-22T22:34:45.575Z,84.10
2018-12-22T22:37:12.632Z,83.50
2018-12-22T22:39:40.878Z,83.20
2018-12-22T22:42:09.151Z,83.60
2018-12-22T22:44:37.522Z,83.40
2018-12-22T22:47:05.813Z,83.80
2018-12-22T22:49:34.075Z,83.10
2018-12-22T22:52:02.386Z,83.20
2018-12-22T22:54:30.663Z,83.30
2018-12-22T22:56:59.446Z,83.20
2018-12-22T22:59:28.189Z,82.90
2018-12-22T23:01:56.447Z,82.60
2018-12-22T23:04:25.193Z,82.60
2018-12-22T23:06:53.559Z,82.50
2018-12-22T23:09:22.742Z,82.20
2018-12-22T23:11:51.011Z,82.00
2018-12-22T23:14:19.307Z,81.80
2018-12-22T23:16:47.566Z,82.00
2018-12-22T23:19:15.851Z,82.50
2018-12-22T23:21:44.798Z,82.60
2018-12-22T23:24:13.095Z,82.50
2018-12-22T23:26:41.680Z,82.10
2018-12-22T23:29:09.974Z,82.70
2018-12-22T23:31:39.543Z,83.00
2018-12-22T23:34:07.828Z,82.90
2018-12-22T23:36:36.135Z,83.40
2018-12-22T23:39:05.736Z,83.50
2018-12-22T23:41:33.998Z,83.60
2018-12-22T23:44:02.672Z,83.50
2018-12-22T23:46:30.935Z,83.60
2018-12-22T23:48:59.243Z,83.40
2018-12-22T23:51:27.583Z,83.60
2018-12-22T23:53:55.878Z,83.70
2018-12-22T23:56:24.212Z,84.00
2018-12-22T23:58:52.574Z,83.70
